sensor_id;sensor_type;location;lat;lon;timestamp;P1;durP1;ratioP1;P2;durP2;ratioP2
72261;SDS011;60173;52.112;8.648;2023-04-25T00:00:38;15.95;;;7.28;;
72261;SDS011;60173;52.112;8.648;2023-04-25T00:03:05;19.65;;;7.40;;
72261;SDS011;60173;52.112;8.648;2023-04-25T00:05:32;27.33;;;8.27;;
72261;SDS011;60173;52.112;8.648;2023-04-25T00:07:58;24.98;;;7.70;;
72261;SDS011;60173;52.112;8.648;2023-04-25T00:10:24;20.33;;;7.43;;
72261;SDS011;60173;52.112;8.648;2023-04-25T00:12:51;22.38;;;8.13;;
72261;SDS011;60173;52.112;8.648;2023-04-25T00:15:17;22.90;;;7.55;;
72261;SDS011;60173;52.112;8.648;2023-04-25T00:17:43;26.67;;;8.30;;
72261;SDS011;60173;52.112;8.648;2023-04-25T00:20:10;25.30;;;8.60;;
72261;SDS011;60173;52.112;8.648;2023-04-25T00:22:37;26.02;;;8.60;;
72261;SDS011;60173;52.112;8.648;2023-04-25T00:25:04;29.85;;;8.55;;
72261;SDS011;60173;52.112;8.648;2023-04-25T00:27:31;21.33;;;8.18;;
72261;SDS011;60173;52.112;8.648;2023-04-25T00:29:58;25.13;;;8.38;;
72261;SDS011;60173;52.112;8.648;2023-04-25T00:32:24;23.75;;;8.80;;
72261;SDS011;60173;52.112;8.648;2023-04-25T00:34:50;30.85;;;8.63;;
72261;SDS011;60173;52.112;8.648;2023-04-25T00:37:17;26.85;;;8.70;;
72261;SDS011;60173;52.112;8.648;2023-04-25T00:39:43;22.42;;;8.07;;
72261;SDS011;60173;52.112;8.648;2023-04-25T00:42:10;22.58;;;8.38;;
72261;SDS011;60173;52.112;8.648;2023-04-25T00:44:37;28.13;;;9.50;;
72261;SDS011;60173;52.112;8.648;2023-04-25T00:47:03;28.98;;;8.77;;
72261;SDS011;60173;52.112;8.648;2023-04-25T00:49:30;23.27;;;9.20;;
72261;SDS011;60173;52.112;8.648;2023-04-25T00:51:57;25.05;;;9.52;;
72261;SDS011;60173;52.112;8.648;2023-04-25T00:54:23;21.27;;;9.40;;
72261;SDS011;60173;52.112;8.648;2023-04-25T00:56:50;26.35;;;9.40;;
72261;SDS011;60173;52.112;8.648;2023-04-25T00:59:17;30.92;;;11.00;;
72261;SDS011;60173;52.112;8.648;2023-04-25T01:01:45;22.20;;;9.85;;
72261;SDS011;60173;52.112;8.648;2023-04-25T01:04:12;21.48;;;9.32;;
72261;SDS011;60173;52.112;8.648;2023-04-25T01:06:39;28.13;;;10.18;;
72261;SDS011;60173;52.112;8.648;2023-04-25T01:09:06;30.77;;;10.13;;
72261;SDS011;60173;52.112;8.648;2023-04-25T01:11:33;26.67;;;10.15;;
72261;SDS011;60173;52.112;8.648;2023-04-25T01:13:59;22.08;;;9.90;;
72261;SDS011;60173;52.112;8.648;2023-04-25T01:16:25;24.88;;;9.82;;
72261;SDS011;60173;52.112;8.648;2023-04-25T01:18:52;26.20;;;9.80;;
72261;SDS011;60173;52.112;8.648;2023-04-25T01:21:18;20.13;;;10.00;;
72261;SDS011;60173;52.112;8.648;2023-04-25T01:23:45;23.75;;;10.65;;
72261;SDS011;60173;52.112;8.648;2023-04-25T01:26:11;19.35;;;9.82;;
72261;SDS011;60173;52.112;8.648;2023-04-25T01:28:38;26.70;;;10.57;;
72261;SDS011;60173;52.112;8.648;2023-04-25T01:31:06;33.50;;;11.52;;
72261;SDS011;60173;52.112;8.648;2023-04-25T01:33:33;20.45;;;10.00;;
72261;SDS011;60173;52.112;8.648;2023-04-25T01:35:59;26.25;;;11.23;;
72261;SDS011;60173;52.112;8.648;2023-04-25T01:38:25;28.63;;;11.05;;
72261;SDS011;60173;52.112;8.648;2023-04-25T01:40:52;24.80;;;10.95;;
72261;SDS011;60173;52.112;8.648;2023-04-25T01:43:19;29.40;;;10.70;;
72261;SDS011;60173;52.112;8.648;2023-04-25T01:45:46;29.80;;;11.25;;
72261;SDS011;60173;52.112;8.648;2023-04-25T01:48:14;26.77;;;10.45;;
72261;SDS011;60173;52.112;8.648;2023-04-25T01:50:41;21.52;;;10.30;;
72261;SDS011;60173;52.112;8.648;2023-04-25T01:53:08;25.83;;;10.70;;
72261;SDS011;60173;52.112;8.648;2023-04-25T01:55:35;29.35;;;10.90;;
72261;SDS011;60173;52.112;8.648;2023-04-25T01:58:02;26.52;;;10.30;;
72261;SDS011;60173;52.112;8.648;2023-04-25T02:00:29;19.73;;;9.40;;
72261;SDS011;60173;52.112;8.648;2023-04-25T02:02:59;23.08;;;9.65;;
72261;SDS011;60173;52.112;8.648;2023-04-25T02:05:25;26.73;;;9.45;;
72261;SDS011;60173;52.112;8.648;2023-04-25T02:07:52;24.63;;;9.50;;
72261;SDS011;60173;52.112;8.648;2023-04-25T02:10:18;23.23;;;9.05;;
72261;SDS011;60173;52.112;8.648;2023-04-25T02:12:44;17.10;;;7.47;;
72261;SDS011;60173;52.112;8.648;2023-04-25T02:15:11;18.38;;;8.02;;
72261;SDS011;60173;52.112;8.648;2023-04-25T02:17:37;18.70;;;8.07;;
72261;SDS011;60173;52.112;8.648;2023-04-25T02:20:03;18.05;;;8.45;;
72261;SDS011;60173;52.112;8.648;2023-04-25T02:22:30;20.65;;;8.75;;
72261;SDS011;60173;52.112;8.648;2023-04-25T02:24:56;16.67;;;8.20;;
72261;SDS011;60173;52.112;8.648;2023-04-25T02:27:23;24.50;;;7.93;;
72261;SDS011;60173;52.112;8.648;2023-04-25T02:29:49;18.30;;;7.28;;
72261;SDS011;60173;52.112;8.648;2023-04-25T02:32:15;25.80;;;8.10;;
72261;SDS011;60173;52.112;8.648;2023-04-25T02:34:42;20.25;;;6.18;;
72261;SDS011;60173;52.112;8.648;2023-04-25T02:37:08;24.75;;;7.40;;
72261;SDS011;60173;52.112;8.648;2023-04-25T02:39:34;23.00;;;7.95;;
72261;SDS011;60173;52.112;8.648;2023-04-25T02:42:01;29.05;;;8.27;;
72261;SDS011;60173;52.112;8.648;2023-04-25T02:44:27;30.15;;;7.88;;
72261;SDS011;60173;52.112;8.648;2023-04-25T02:46:53;22.58;;;7.05;;
72261;SDS011;60173;52.112;8.648;2023-04-25T02:49:20;27.95;;;7.13;;
72261;SDS011;60173;52.112;8.648;2023-04-25T02:51:46;34.50;;;7.00;;
72261;SDS011;60173;52.112;8.648;2023-04-25T02:54:12;34.72;;;7.22;;
72261;SDS011;60173;52.112;8.648;2023-04-25T02:56:39;36.45;;;7.22;;
72261;SDS011;60173;52.112;8.648;2023-04-25T02:59:05;27.00;;;6.65;;
72261;SDS011;60173;52.112;8.648;2023-04-25T03:01:31;29.77;;;6.75;;
72261;SDS011;60173;52.112;8.648;2023-04-25T03:03:58;25.40;;;6.25;;
72261;SDS011;60173;52.112;8.648;2023-04-25T03:06:24;18.50;;;6.25;;
72261;SDS011;60173;52.112;8.648;2023-04-25T03:08:50;23.40;;;6.10;;
72261;SDS011;60173;52.112;8.648;2023-04-25T03:11:17;24.55;;;6.65;;
72261;SDS011;60173;52.112;8.648;2023-04-25T03:13:43;34.03;;;8.13;;
72261;SDS011;60173;52.112;8.648;2023-04-25T03:16:09;35.78;;;7.47;;
72261;SDS011;60173;52.112;8.648;2023-04-25T03:18:36;28.05;;;6.57;;
72261;SDS011;60173;52.112;8.648;2023-04-25T03:21:02;21.55;;;6.88;;
72261;SDS011;60173;52.112;8.648;2023-04-25T03:23:28;25.08;;;6.82;;
72261;SDS011;60173;52.112;8.648;2023-04-25T03:25:55;39.58;;;7.88;;
72261;SDS011;60173;52.112;8.648;2023-04-25T03:28:21;24.67;;;6.80;;
72261;SDS011;60173;52.112;8.648;2023-04-25T03:30:48;32.78;;;7.10;;
72261;SDS011;60173;52.112;8.648;2023-04-25T03:33:14;33.88;;;7.28;;
72261;SDS011;60173;52.112;8.648;2023-04-25T03:35:40;31.40;;;6.93;;
72261;SDS011;60173;52.112;8.648;2023-04-25T03:38:07;35.05;;;7.03;;
72261;SDS011;60173;52.112;8.648;2023-04-25T03:40:33;33.33;;;7.55;;
72261;SDS011;60173;52.112;8.648;2023-04-25T03:42:59;41.75;;;7.32;;
72261;SDS011;60173;52.112;8.648;2023-04-25T03:45:26;29.35;;;7.25;;
72261;SDS011;60173;52.112;8.648;2023-04-25T03:47:52;32.17;;;6.70;;
72261;SDS011;60173;52.112;8.648;2023-04-25T03:50:18;28.08;;;6.93;;
72261;SDS011;60173;52.112;8.648;2023-04-25T03:52:46;28.42;;;6.43;;
72261;SDS011;60173;52.112;8.648;2023-04-25T03:55:12;24.27;;;6.13;;
72261;SDS011;60173;52.112;8.648;2023-04-25T03:57:38;33.10;;;6.78;;
72261;SDS011;60173;52.112;8.648;2023-04-25T04:00:05;40.90;;;7.53;;
72261;SDS011;60173;52.112;8.648;2023-04-25T04:02:32;34.00;;;7.50;;
72261;SDS011;60173;52.112;8.648;2023-04-25T04:04:58;35.95;;;6.85;;
72261;SDS011;60173;52.112;8.648;2023-04-25T04:07:25;27.88;;;6.68;;
72261;SDS011;60173;52.112;8.648;2023-04-25T04:09:51;38.33;;;7.90;;
72261;SDS011;60173;52.112;8.648;2023-04-25T04:12:18;23.80;;;6.05;;
72261;SDS011;60173;52.112;8.648;2023-04-25T04:14:44;26.95;;;7.00;;
72261;SDS011;60173;52.112;8.648;2023-04-25T04:17:10;21.05;;;6.15;;
72261;SDS011;60173;52.112;8.648;2023-04-25T04:19:37;33.28;;;7.00;;
72261;SDS011;60173;52.112;8.648;2023-04-25T04:22:03;29.05;;;7.20;;
72261;SDS011;60173;52.112;8.648;2023-04-25T04:24:29;32.30;;;7.57;;
72261;SDS011;60173;52.112;8.648;2023-04-25T04:26:55;29.98;;;7.63;;
72261;SDS011;60173;52.112;8.648;2023-04-25T04:29:22;41.10;;;7.95;;
72261;SDS011;60173;52.112;8.648;2023-04-25T04:31:49;29.85;;;6.70;;
72261;SDS011;60173;52.112;8.648;2023-04-25T04:34:16;29.98;;;7.32;;
72261;SDS011;60173;52.112;8.648;2023-04-25T04:36:43;32.75;;;8.00;;
72261;SDS011;60173;52.112;8.648;2023-04-25T04:39:13;30.38;;;7.07;;
72261;SDS011;60173;52.112;8.648;2023-04-25T04:41:40;28.25;;;6.63;;
72261;SDS011;60173;52.112;8.648;2023-04-25T04:44:06;34.65;;;7.15;;
72261;SDS011;60173;52.112;8.648;2023-04-25T04:46:34;28.85;;;7.40;;
72261;SDS011;60173;52.112;8.648;2023-04-25T04:49:00;36.45;;;7.63;;
72261;SDS011;60173;52.112;8.648;2023-04-25T04:51:27;25.55;;;7.30;;
72261;SDS011;60173;52.112;8.648;2023-04-25T04:53:53;36.13;;;6.32;;
72261;SDS011;60173;52.112;8.648;2023-04-25T04:56:19;34.08;;;6.82;;
72261;SDS011;60173;52.112;8.648;2023-04-25T04:58:46;30.90;;;6.85;;
72261;SDS011;60173;52.112;8.648;2023-04-25T05:01:12;28.33;;;6.63;;
72261;SDS011;60173;52.112;8.648;2023-04-25T05:03:38;29.98;;;6.88;;
72261;SDS011;60173;52.112;8.648;2023-04-25T05:06:05;22.70;;;6.70;;
72261;SDS011;60173;52.112;8.648;2023-04-25T05:08:31;24.25;;;6.32;;
72261;SDS011;60173;52.112;8.648;2023-04-25T05:10:58;26.98;;;6.63;;
72261;SDS011;60173;52.112;8.648;2023-04-25T05:13:24;25.40;;;7.30;;
72261;SDS011;60173;52.112;8.648;2023-04-25T05:15:50;28.13;;;6.55;;
72261;SDS011;60173;52.112;8.648;2023-04-25T05:18:17;27.70;;;7.55;;
72261;SDS011;60173;52.112;8.648;2023-04-25T05:20:43;29.92;;;6.82;;
72261;SDS011;60173;52.112;8.648;2023-04-25T05:23:09;29.65;;;7.47;;
72261;SDS011;60173;52.112;8.648;2023-04-25T05:25:36;22.83;;;6.47;;
72261;SDS011;60173;52.112;8.648;2023-04-25T05:28:02;28.45;;;7.20;;
72261;SDS011;60173;52.112;8.648;2023-04-25T05:30:28;29.98;;;7.13;;
72261;SDS011;60173;52.112;8.648;2023-04-25T05:32:55;31.98;;;6.70;;
72261;SDS011;60173;52.112;8.648;2023-04-25T05:35:21;30.33;;;6.57;;
72261;SDS011;60173;52.112;8.648;2023-04-25T05:37:48;34.42;;;7.72;;
72261;SDS011;60173;52.112;8.648;2023-04-25T05:40:14;23.38;;;6.75;;
72261;SDS011;60173;52.112;8.648;2023-04-25T05:42:40;26.10;;;7.10;;
72261;SDS011;60173;52.112;8.648;2023-04-25T05:45:07;25.35;;;6.53;;
72261;SDS011;60173;52.112;8.648;2023-04-25T05:47:33;26.77;;;6.53;;
72261;SDS011;60173;52.112;8.648;2023-04-25T05:49:59;24.35;;;6.43;;
72261;SDS011;60173;52.112;8.648;2023-04-25T05:52:26;25.70;;;6.50;;
72261;SDS011;60173;52.112;8.648;2023-04-25T05:54:52;26.13;;;6.18;;
72261;SDS011;60173;52.112;8.648;2023-04-25T05:57:22;26.77;;;6.95;;
72261;SDS011;60173;52.112;8.648;2023-04-25T05:59:52;29.33;;;6.18;;
72261;SDS011;60173;52.112;8.648;2023-04-25T06:02:20;23.75;;;6.18;;
72261;SDS011;60173;52.112;8.648;2023-04-25T06:04:48;22.48;;;6.32;;
72261;SDS011;60173;52.112;8.648;2023-04-25T06:07:16;25.90;;;6.22;;
72261;SDS011;60173;52.112;8.648;2023-04-25T06:09:43;26.17;;;6.18;;
72261;SDS011;60173;52.112;8.648;2023-04-25T06:12:10;28.25;;;6.63;;
72261;SDS011;60173;52.112;8.648;2023-04-25T06:14:36;19.85;;;5.63;;
72261;SDS011;60173;52.112;8.648;2023-04-25T06:17:03;26.17;;;6.18;;
72261;SDS011;60173;52.112;8.648;2023-04-25T06:19:29;19.30;;;5.32;;
72261;SDS011;60173;52.112;8.648;2023-04-25T06:21:56;22.77;;;6.10;;
72261;SDS011;60173;52.112;8.648;2023-04-25T06:24:22;25.48;;;7.63;;
72261;SDS011;60173;52.112;8.648;2023-04-25T06:26:48;29.05;;;5.88;;
72261;SDS011;60173;52.112;8.648;2023-04-25T06:29:15;31.58;;;6.57;;
72261;SDS011;60173;52.112;8.648;2023-04-25T06:31:41;20.75;;;5.00;;
72261;SDS011;60173;52.112;8.648;2023-04-25T06:34:07;20.60;;;5.55;;
72261;SDS011;60173;52.112;8.648;2023-04-25T06:36:34;26.85;;;6.43;;
72261;SDS011;60173;52.112;8.648;2023-04-25T06:39:00;32.83;;;5.80;;
72261;SDS011;60173;52.112;8.648;2023-04-25T06:41:26;27.05;;;5.70;;
72261;SDS011;60173;52.112;8.648;2023-04-25T06:43:53;21.90;;;5.32;;
72261;SDS011;60173;52.112;8.648;2023-04-25T06:46:19;25.35;;;5.30;;
72261;SDS011;60173;52.112;8.648;2023-04-25T06:48:46;32.55;;;6.18;;
72261;SDS011;60173;52.112;8.648;2023-04-25T06:51:12;20.90;;;5.43;;
72261;SDS011;60173;52.112;8.648;2023-04-25T06:53:39;21.35;;;4.93;;
72261;SDS011;60173;52.112;8.648;2023-04-25T06:56:06;21.48;;;5.20;;
72261;SDS011;60173;52.112;8.648;2023-04-25T06:58:32;25.60;;;4.93;;
72261;SDS011;60173;52.112;8.648;2023-04-25T07:00:58;19.13;;;4.43;;
72261;SDS011;60173;52.112;8.648;2023-04-25T07:03:25;23.98;;;4.80;;
72261;SDS011;60173;52.112;8.648;2023-04-25T07:05:51;20.70;;;4.55;;
72261;SDS011;60173;52.112;8.648;2023-04-25T07:08:18;26.52;;;5.03;;
72261;SDS011;60173;52.112;8.648;2023-04-25T07:10:44;25.85;;;4.18;;
72261;SDS011;60173;52.112;8.648;2023-04-25T07:13:14;26.55;;;5.75;;
72261;SDS011;60173;52.112;8.648;2023-04-25T07:15:41;21.67;;;5.18;;
72261;SDS011;60173;52.112;8.648;2023-04-25T07:18:07;21.98;;;4.60;;
72261;SDS011;60173;52.112;8.648;2023-04-25T07:20:33;23.10;;;4.95;;
72261;SDS011;60173;52.112;8.648;2023-04-25T07:23:00;21.65;;;4.88;;
72261;SDS011;60173;52.112;8.648;2023-04-25T07:25:26;18.58;;;4.22;;
72261;SDS011;60173;52.112;8.648;2023-04-25T07:27:52;21.58;;;4.85;;
72261;SDS011;60173;52.112;8.648;2023-04-25T07:30:19;28.08;;;4.47;;
72261;SDS011;60173;52.112;8.648;2023-04-25T07:32:45;22.27;;;4.80;;
72261;SDS011;60173;52.112;8.648;2023-04-25T07:35:12;22.55;;;3.95;;
72261;SDS011;60173;52.112;8.648;2023-04-25T07:37:38;22.25;;;3.95;;
72261;SDS011;60173;52.112;8.648;2023-04-25T07:40:05;20.00;;;4.43;;
72261;SDS011;60173;52.112;8.648;2023-04-25T07:42:32;16.58;;;3.65;;
72261;SDS011;60173;52.112;8.648;2023-04-25T07:44:58;20.60;;;3.80;;
72261;SDS011;60173;52.112;8.648;2023-04-25T07:47:24;22.27;;;4.47;;
72261;SDS011;60173;52.112;8.648;2023-04-25T07:49:51;21.13;;;4.20;;
72261;SDS011;60173;52.112;8.648;2023-04-25T07:52:17;15.80;;;3.17;;
72261;SDS011;60173;52.112;8.648;2023-04-25T07:54:43;19.73;;;3.90;;
72261;SDS011;60173;52.112;8.648;2023-04-25T07:57:10;19.73;;;3.65;;
72261;SDS011;60173;52.112;8.648;2023-04-25T07:59:36;14.02;;;4.55;;
72261;SDS011;60173;52.112;8.648;2023-04-25T08:02:02;15.40;;;4.28;;
72261;SDS011;60173;52.112;8.648;2023-04-25T08:04:29;18.50;;;3.78;;
72261;SDS011;60173;52.112;8.648;2023-04-25T08:06:55;19.90;;;3.50;;
72261;SDS011;60173;52.112;8.648;2023-04-25T08:09:22;16.38;;;3.22;;
72261;SDS011;60173;52.112;8.648;2023-04-25T08:11:48;16.50;;;3.38;;
72261;SDS011;60173;52.112;8.648;2023-04-25T08:14:15;19.75;;;3.95;;
72261;SDS011;60173;52.112;8.648;2023-04-25T08:16:41;15.38;;;3.55;;
72261;SDS011;60173;52.112;8.648;2023-04-25T08:19:07;16.73;;;3.30;;
72261;SDS011;60173;52.112;8.648;2023-04-25T08:21:34;13.23;;;3.38;;
72261;SDS011;60173;52.112;8.648;2023-04-25T08:24:00;18.85;;;3.53;;
72261;SDS011;60173;52.112;8.648;2023-04-25T08:26:29;18.25;;;3.72;;
72261;SDS011;60173;52.112;8.648;2023-04-25T08:28:55;10.95;;;3.17;;
72261;SDS011;60173;52.112;8.648;2023-04-25T08:31:21;15.85;;;3.63;;
72261;SDS011;60173;52.112;8.648;2023-04-25T08:33:48;11.88;;;2.90;;
72261;SDS011;60173;52.112;8.648;2023-04-25T08:36:14;13.10;;;2.85;;
72261;SDS011;60173;52.112;8.648;2023-04-25T08:39:00;17.70;;;3.67;;
72261;SDS011;60173;52.112;8.648;2023-04-25T08:41:27;20.30;;;3.67;;
72261;SDS011;60173;52.112;8.648;2023-04-25T08:43:53;13.27;;;2.97;;
72261;SDS011;60173;52.112;8.648;2023-04-25T08:46:22;20.27;;;5.15;;
72261;SDS011;60173;52.112;8.648;2023-04-25T08:48:49;13.75;;;2.85;;
72261;SDS011;60173;52.112;8.648;2023-04-25T08:51:22;15.27;;;3.00;;
72261;SDS011;60173;52.112;8.648;2023-04-25T08:53:49;16.60;;;3.50;;
72261;SDS011;60173;52.112;8.648;2023-04-25T08:56:22;13.45;;;2.90;;
72261;SDS011;60173;52.112;8.648;2023-04-25T08:58:50;14.57;;;2.80;;
72261;SDS011;60173;52.112;8.648;2023-04-25T09:01:17;13.20;;;3.20;;
72261;SDS011;60173;52.112;8.648;2023-04-25T09:03:44;15.07;;;3.33;;
72261;SDS011;60173;52.112;8.648;2023-04-25T09:06:11;14.02;;;2.75;;
72261;SDS011;60173;52.112;8.648;2023-04-25T09:08:37;18.45;;;2.95;;
72261;SDS011;60173;52.112;8.648;2023-04-25T09:11:04;14.70;;;3.72;;
72261;SDS011;60173;52.112;8.648;2023-04-25T09:13:30;16.02;;;3.42;;
72261;SDS011;60173;52.112;8.648;2023-04-25T09:15:57;16.48;;;3.00;;
72261;SDS011;60173;52.112;8.648;2023-04-25T09:18:27;14.45;;;3.17;;
72261;SDS011;60173;52.112;8.648;2023-04-25T09:21:04;16.00;;;3.38;;
72261;SDS011;60173;52.112;8.648;2023-04-25T09:23:40;13.52;;;3.08;;
72261;SDS011;60173;52.112;8.648;2023-04-25T09:26:18;25.73;;;3.50;;
72261;SDS011;60173;52.112;8.648;2023-04-25T09:31:20;17.42;;;3.50;;
72261;SDS011;60173;52.112;8.648;2023-04-25T09:33:48;12.38;;;2.90;;
72261;SDS011;60173;52.112;8.648;2023-04-25T09:36:16;10.93;;;2.42;;
72261;SDS011;60173;52.112;8.648;2023-04-25T09:38:43;12.13;;;2.38;;
72261;SDS011;60173;52.112;8.648;2023-04-25T09:41:11;12.40;;;2.60;;
72261;SDS011;60173;52.112;8.648;2023-04-25T09:43:38;13.02;;;2.58;;
72261;SDS011;60173;52.112;8.648;2023-04-25T09:46:09;11.27;;;2.83;;
72261;SDS011;60173;52.112;8.648;2023-04-25T09:48:36;11.57;;;2.55;;
72261;SDS011;60173;52.112;8.648;2023-04-25T09:53:29;13.10;;;2.63;;
72261;SDS011;60173;52.112;8.648;2023-04-25T09:55:55;17.55;;;3.10;;
72261;SDS011;60173;52.112;8.648;2023-04-25T09:58:22;11.77;;;3.10;;
72261;SDS011;60173;52.112;8.648;2023-04-25T10:00:50;12.05;;;2.15;;
72261;SDS011;60173;52.112;8.648;2023-04-25T10:03:17;11.05;;;2.65;;
72261;SDS011;60173;52.112;8.648;2023-04-25T10:05:46;13.13;;;2.65;;
72261;SDS011;60173;52.112;8.648;2023-04-25T10:08:14;11.90;;;3.00;;
72261;SDS011;60173;52.112;8.648;2023-04-25T10:10:41;12.38;;;2.72;;
72261;SDS011;60173;52.112;8.648;2023-04-25T10:13:09;11.90;;;2.78;;
72261;SDS011;60173;52.112;8.648;2023-04-25T10:15:36;16.20;;;4.43;;
72261;SDS011;60173;52.112;8.648;2023-04-25T10:18:06;10.18;;;2.67;;
72261;SDS011;60173;52.112;8.648;2023-04-25T10:20:33;11.43;;;2.60;;
72261;SDS011;60173;52.112;8.648;2023-04-25T10:23:03;9.55;;;2.50;;
72261;SDS011;60173;52.112;8.648;2023-04-25T10:25:35;13.45;;;3.63;;
72261;SDS011;60173;52.112;8.648;2023-04-25T10:28:03;15.50;;;3.05;;
72261;SDS011;60173;52.112;8.648;2023-04-25T10:30:29;58.90;;;15.10;;
72261;SDS011;60173;52.112;8.648;2023-04-25T10:32:56;12.23;;;3.03;;
72261;SDS011;60173;52.112;8.648;2023-04-25T10:35:29;74.78;;;17.73;;
72261;SDS011;60173;52.112;8.648;2023-04-25T10:38:14;17.20;;;4.88;;
72261;SDS011;60173;52.112;8.648;2023-04-25T10:40:40;8.05;;;2.33;;
72261;SDS011;60173;52.112;8.648;2023-04-25T10:46:16;9.48;;;2.20;;
72261;SDS011;60173;52.112;8.648;2023-04-25T10:48:46;17.88;;;4.40;;
72261;SDS011;60173;52.112;8.648;2023-04-25T10:51:23;10.40;;;2.90;;
72261;SDS011;60173;52.112;8.648;2023-04-25T10:54:00;10.18;;;2.42;;
72261;SDS011;60173;52.112;8.648;2023-04-25T10:56:29;13.65;;;2.95;;
72261;SDS011;60173;52.112;8.648;2023-04-25T10:59:16;7.75;;;2.20;;
72261;SDS011;60173;52.112;8.648;2023-04-25T11:01:47;8.27;;;2.15;;
72261;SDS011;60173;52.112;8.648;2023-04-25T11:09:33;7.93;;;2.35;;
72261;SDS011;60173;52.112;8.648;2023-04-25T11:12:01;10.40;;;2.75;;
72261;SDS011;60173;52.112;8.648;2023-04-25T11:14:27;8.30;;;2.22;;
72261;SDS011;60173;52.112;8.648;2023-04-25T11:16:54;13.00;;;1.88;;
72261;SDS011;60173;52.112;8.648;2023-04-25T11:19:23;8.93;;;1.98;;
72261;SDS011;60173;52.112;8.648;2023-04-25T11:21:50;10.90;;;2.22;;
72261;SDS011;60173;52.112;8.648;2023-04-25T11:24:27;9.35;;;1.95;;
72261;SDS011;60173;52.112;8.648;2023-04-25T11:26:55;7.95;;;1.98;;
72261;SDS011;60173;52.112;8.648;2023-04-25T11:29:31;7.55;;;2.17;;
72261;SDS011;60173;52.112;8.648;2023-04-25T11:31:59;6.10;;;1.60;;
72261;SDS011;60173;52.112;8.648;2023-04-25T11:34:25;10.10;;;2.10;;
72261;SDS011;60173;52.112;8.648;2023-04-25T11:36:52;9.52;;;1.80;;
72261;SDS011;60173;52.112;8.648;2023-04-25T11:39:19;9.80;;;2.28;;
72261;SDS011;60173;52.112;8.648;2023-04-25T11:41:46;9.50;;;1.92;;
72261;SDS011;60173;52.112;8.648;2023-04-25T11:44:16;8.23;;;1.95;;
72261;SDS011;60173;52.112;8.648;2023-04-25T11:46:43;6.60;;;2.08;;
72261;SDS011;60173;52.112;8.648;2023-04-25T11:49:10;8.55;;;1.83;;
72261;SDS011;60173;52.112;8.648;2023-04-25T11:51:40;7.43;;;1.67;;
72261;SDS011;60173;52.112;8.648;2023-04-25T11:54:07;8.38;;;1.63;;
72261;SDS011;60173;52.112;8.648;2023-04-25T11:56:33;8.20;;;1.92;;
72261;SDS011;60173;52.112;8.648;2023-04-25T11:59:00;8.02;;;2.00;;
72261;SDS011;60173;52.112;8.648;2023-04-25T12:04:14;12.98;;;2.08;;
72261;SDS011;60173;52.112;8.648;2023-04-25T12:06:42;8.27;;;2.00;;
72261;SDS011;60173;52.112;8.648;2023-04-25T12:09:11;5.35;;;1.42;;
72261;SDS011;60173;52.112;8.648;2023-04-25T12:11:45;3.85;;;1.30;;
72261;SDS011;60173;52.112;8.648;2023-04-25T12:14:32;5.68;;;1.83;;
72261;SDS011;60173;52.112;8.648;2023-04-25T12:17:01;7.18;;;1.75;;
72261;SDS011;60173;52.112;8.648;2023-04-25T12:19:32;8.68;;;1.90;;
72261;SDS011;60173;52.112;8.648;2023-04-25T12:22:00;6.35;;;1.85;;
72261;SDS011;60173;52.112;8.648;2023-04-25T12:24:28;6.05;;;1.85;;
72261;SDS011;60173;52.112;8.648;2023-04-25T12:27:04;8.07;;;2.13;;
72261;SDS011;60173;52.112;8.648;2023-04-25T12:29:33;10.43;;;2.03;;
72261;SDS011;60173;52.112;8.648;2023-04-25T12:32:14;12.32;;;1.77;;
72261;SDS011;60173;52.112;8.648;2023-04-25T12:34:41;6.13;;;1.80;;
72261;SDS011;60173;52.112;8.648;2023-04-25T12:37:07;9.30;;;1.95;;
72261;SDS011;60173;52.112;8.648;2023-04-25T12:39:33;7.43;;;1.65;;
72261;SDS011;60173;52.112;8.648;2023-04-25T12:42:00;9.77;;;2.38;;
72261;SDS011;60173;52.112;8.648;2023-04-25T12:44:26;6.95;;;1.73;;
72261;SDS011;60173;52.112;8.648;2023-04-25T12:46:52;6.30;;;1.98;;
72261;SDS011;60173;52.112;8.648;2023-04-25T12:49:19;8.13;;;2.30;;
72261;SDS011;60173;52.112;8.648;2023-04-25T12:51:45;9.75;;;1.80;;
72261;SDS011;60173;52.112;8.648;2023-04-25T12:54:12;5.78;;;1.75;;
72261;SDS011;60173;52.112;8.648;2023-04-25T12:56:38;7.35;;;2.00;;
72261;SDS011;60173;52.112;8.648;2023-04-25T12:59:04;4.18;;;1.52;;
72261;SDS011;60173;52.112;8.648;2023-04-25T13:01:31;7.05;;;1.85;;
72261;SDS011;60173;52.112;8.648;2023-04-25T13:03:59;6.93;;;1.70;;
72261;SDS011;60173;52.112;8.648;2023-04-25T13:06:26;4.00;;;1.60;;
72261;SDS011;60173;52.112;8.648;2023-04-25T13:08:53;8.73;;;2.00;;
72261;SDS011;60173;52.112;8.648;2023-04-25T13:11:19;8.70;;;2.42;;
72261;SDS011;60173;52.112;8.648;2023-04-25T13:13:47;9.00;;;1.83;;
72261;SDS011;60173;52.112;8.648;2023-04-25T13:16:14;7.05;;;2.10;;
72261;SDS011;60173;52.112;8.648;2023-04-25T13:18:40;9.82;;;2.72;;
72261;SDS011;60173;52.112;8.648;2023-04-25T13:21:08;8.25;;;2.42;;
72261;SDS011;60173;52.112;8.648;2023-04-25T13:23:35;8.48;;;1.83;;
72261;SDS011;60173;52.112;8.648;2023-04-25T13:26:02;4.10;;;1.60;;
72261;SDS011;60173;52.112;8.648;2023-04-25T13:28:28;6.47;;;1.67;;
72261;SDS011;60173;52.112;8.648;2023-04-25T13:30:55;6.43;;;1.40;;
72261;SDS011;60173;52.112;8.648;2023-04-25T13:33:21;4.68;;;1.50;;
72261;SDS011;60173;52.112;8.648;2023-04-25T13:35:48;4.78;;;1.50;;
72261;SDS011;60173;52.112;8.648;2023-04-25T13:38:15;5.43;;;1.45;;
72261;SDS011;60173;52.112;8.648;2023-04-25T13:40:41;5.40;;;1.40;;
72261;SDS011;60173;52.112;8.648;2023-04-25T13:43:08;4.22;;;1.40;;
72261;SDS011;60173;52.112;8.648;2023-04-25T13:45:34;4.72;;;1.08;;
72261;SDS011;60173;52.112;8.648;2023-04-25T13:48:00;4.15;;;1.40;;
72261;SDS011;60173;52.112;8.648;2023-04-25T13:50:27;5.75;;;1.25;;
72261;SDS011;60173;52.112;8.648;2023-04-25T13:52:53;5.88;;;1.30;;
72261;SDS011;60173;52.112;8.648;2023-04-25T13:55:19;4.53;;;1.30;;
72261;SDS011;60173;52.112;8.648;2023-04-25T13:57:46;3.08;;;1.17;;
72261;SDS011;60173;52.112;8.648;2023-04-25T14:00:12;6.35;;;1.27;;
72261;SDS011;60173;52.112;8.648;2023-04-25T14:02:39;3.95;;;1.35;;
72261;SDS011;60173;52.112;8.648;2023-04-25T14:05:06;4.82;;;1.23;;
72261;SDS011;60173;52.112;8.648;2023-04-25T14:07:33;7.47;;;1.50;;
72261;SDS011;60173;52.112;8.648;2023-04-25T14:10:00;7.30;;;1.50;;
72261;SDS011;60173;52.112;8.648;2023-04-25T14:12:27;7.93;;;1.60;;
72261;SDS011;60173;52.112;8.648;2023-04-25T14:14:53;4.80;;;1.35;;
72261;SDS011;60173;52.112;8.648;2023-04-25T14:17:20;4.00;;;1.52;;
72261;SDS011;60173;52.112;8.648;2023-04-25T14:19:46;6.07;;;1.60;;
72261;SDS011;60173;52.112;8.648;2023-04-25T14:22:12;6.03;;;1.30;;
72261;SDS011;60173;52.112;8.648;2023-04-25T14:24:41;8.50;;;1.65;;
72261;SDS011;60173;52.112;8.648;2023-04-25T14:27:08;5.00;;;1.55;;
72261;SDS011;60173;52.112;8.648;2023-04-25T14:29:34;6.32;;;1.48;;
72261;SDS011;60173;52.112;8.648;2023-04-25T14:32:01;6.18;;;1.95;;
72261;SDS011;60173;52.112;8.648;2023-04-25T14:34:27;5.80;;;1.52;;
72261;SDS011;60173;52.112;8.648;2023-04-25T14:36:54;6.55;;;1.20;;
72261;SDS011;60173;52.112;8.648;2023-04-25T14:39:20;4.10;;;1.20;;
72261;SDS011;60173;52.112;8.648;2023-04-25T14:41:46;5.53;;;1.48;;
72261;SDS011;60173;52.112;8.648;2023-04-25T14:44:13;6.80;;;1.90;;
72261;SDS011;60173;52.112;8.648;2023-04-25T14:46:39;2.75;;;1.20;;
72261;SDS011;60173;52.112;8.648;2023-04-25T14:49:05;5.97;;;1.40;;
72261;SDS011;60173;52.112;8.648;2023-04-25T14:51:32;3.05;;;1.13;;